sensor_id;sensor_type;location;lat;lon;timestamp;P1;durP1;ratioP1;P2;durP2;ratioP2
68357;SDS011;55276;53.260;50.222;2022-08-05T00:00:00;9.32;;;3.45;;
68357;SDS011;55276;53.260;50.222;2022-08-05T00:02:26;9.38;;;3.00;;
68357;SDS011;55276;53.260;50.222;2022-08-05T00:04:52;7.85;;;2.85;;
68357;SDS011;55276;53.260;50.222;2022-08-05T00:07:18;6.97;;;2.95;;
68357;SDS011;55276;53.260;50.222;2022-08-05T00:09:44;9.07;;;3.00;;
68357;SDS011;55276;53.260;50.222;2022-08-05T00:12:11;12.18;;;3.25;;
68357;SDS011;55276;53.260;50.222;2022-08-05T00:14:38;6.18;;;3.00;;
68357;SDS011;55276;53.260;50.222;2022-08-05T00:17:04;12.63;;;3.00;;
68357;SDS011;55276;53.260;50.222;2022-08-05T00:19:30;12.90;;;2.95;;
68357;SDS011;55276;53.260;50.222;2022-08-05T00:21:56;8.23;;;2.80;;
68357;SDS011;55276;53.260;50.222;2022-08-05T00:24:22;10.98;;;2.92;;
68357;SDS011;55276;53.260;50.222;2022-08-05T00:26:48;11.00;;;3.00;;
68357;SDS011;55276;53.260;50.222;2022-08-05T00:29:14;6.57;;;2.65;;
68357;SDS011;55276;53.260;50.222;2022-08-05T00:31:40;10.05;;;3.00;;
68357;SDS011;55276;53.260;50.222;2022-08-05T00:34:06;11.27;;;3.08;;
68357;SDS011;55276;53.260;50.222;2022-08-05T00:36:32;12.15;;;3.30;;
68357;SDS011;55276;53.260;50.222;2022-08-05T00:38:58;9.82;;;3.30;;
68357;SDS011;55276;53.260;50.222;2022-08-05T00:41:31;9.30;;;3.20;;
68357;SDS011;55276;53.260;50.222;2022-08-05T00:43:59;11.23;;;3.60;;
68357;SDS011;55276;53.260;50.222;2022-08-05T00:48:52;10.75;;;3.20;;
68357;SDS011;55276;53.260;50.222;2022-08-05T00:51:19;10.23;;;3.33;;
68357;SDS011;55276;53.260;50.222;2022-08-05T00:53:46;13.40;;;3.40;;
68357;SDS011;55276;53.260;50.222;2022-08-05T00:56:14;11.07;;;3.30;;
68357;SDS011;55276;53.260;50.222;2022-08-05T00:58:42;12.05;;;3.20;;
68357;SDS011;55276;53.260;50.222;2022-08-05T01:01:09;8.17;;;2.90;;
68357;SDS011;55276;53.260;50.222;2022-08-05T01:03:39;10.85;;;3.25;;
68357;SDS011;55276;53.260;50.222;2022-08-05T01:06:06;13.80;;;3.13;;
68357;SDS011;55276;53.260;50.222;2022-08-05T01:08:33;10.18;;;3.75;;
68357;SDS011;55276;53.260;50.222;2022-08-05T01:11:01;11.00;;;4.03;;
68357;SDS011;55276;53.260;50.222;2022-08-05T01:13:37;14.57;;;3.25;;
68357;SDS011;55276;53.260;50.222;2022-08-05T01:16:20;9.10;;;3.38;;
68357;SDS011;55276;53.260;50.222;2022-08-05T01:18:52;13.35;;;3.38;;
68357;SDS011;55276;53.260;50.222;2022-08-05T01:29:19;12.82;;;3.05;;
68357;SDS011;55276;53.260;50.222;2022-08-05T01:31:51;14.52;;;3.78;;
68357;SDS011;55276;53.260;50.222;2022-08-05T01:37:17;16.75;;;3.60;;
68357;SDS011;55276;53.260;50.222;2022-08-05T01:39:48;15.75;;;3.75;;
68357;SDS011;55276;53.260;50.222;2022-08-05T01:42:16;15.52;;;3.28;;
68357;SDS011;55276;53.260;50.222;2022-08-05T01:44:45;17.70;;;3.58;;
68357;SDS011;55276;53.260;50.222;2022-08-05T01:47:18;12.27;;;3.17;;
68357;SDS011;55276;53.260;50.222;2022-08-05T01:49:46;13.57;;;2.90;;
68357;SDS011;55276;53.260;50.222;2022-08-05T01:52:14;13.93;;;3.05;;
68357;SDS011;55276;53.260;50.222;2022-08-05T01:54:53;13.82;;;3.72;;
68357;SDS011;55276;53.260;50.222;2022-08-05T01:57:25;9.77;;;2.92;;
68357;SDS011;55276;53.260;50.222;2022-08-05T01:59:54;14.32;;;3.40;;
68357;SDS011;55276;53.260;50.222;2022-08-05T02:02:23;12.13;;;3.28;;
68357;SDS011;55276;53.260;50.222;2022-08-05T02:07:17;15.85;;;3.85;;
68357;SDS011;55276;53.260;50.222;2022-08-05T02:09:43;18.00;;;4.03;;
68357;SDS011;55276;53.260;50.222;2022-08-05T02:12:11;23.30;;;4.00;;
68357;SDS011;55276;53.260;50.222;2022-08-05T02:15:02;17.60;;;3.55;;
68357;SDS011;55276;53.260;50.222;2022-08-05T02:17:40;17.90;;;3.45;;
68357;SDS011;55276;53.260;50.222;2022-08-05T02:20:16;12.40;;;3.28;;
68357;SDS011;55276;53.260;50.222;2022-08-05T02:22:46;12.57;;;3.10;;
68357;SDS011;55276;53.260;50.222;2022-08-05T02:25:21;10.38;;;2.90;;
68357;SDS011;55276;53.260;50.222;2022-08-05T02:27:50;11.30;;;3.28;;
68357;SDS011;55276;53.260;50.222;2022-08-05T02:30:19;6.40;;;2.70;;
68357;SDS011;55276;53.260;50.222;2022-08-05T02:32:48;11.20;;;2.90;;
68357;SDS011;55276;53.260;50.222;2022-08-05T02:35:18;11.10;;;2.92;;
68357;SDS011;55276;53.260;50.222;2022-08-05T02:37:45;9.77;;;2.80;;
68357;SDS011;55276;53.260;50.222;2022-08-05T02:40:12;11.48;;;2.95;;
68357;SDS011;55276;53.260;50.222;2022-08-05T02:42:41;7.90;;;2.90;;
68357;SDS011;55276;53.260;50.222;2022-08-05T02:45:09;9.88;;;3.00;;
68357;SDS011;55276;53.260;50.222;2022-08-05T02:47:39;15.63;;;3.30;;
68357;SDS011;55276;53.260;50.222;2022-08-05T02:50:06;11.60;;;3.20;;
68357;SDS011;55276;53.260;50.222;2022-08-05T02:52:34;11.05;;;3.40;;
68357;SDS011;55276;53.260;50.222;2022-08-05T02:55:00;12.50;;;3.00;;
68357;SDS011;55276;53.260;50.222;2022-08-05T02:57:27;13.45;;;3.78;;
68357;SDS011;55276;53.260;50.222;2022-08-05T02:59:54;18.35;;;3.17;;
68357;SDS011;55276;53.260;50.222;2022-08-05T03:02:23;11.70;;;3.00;;
68357;SDS011;55276;53.260;50.222;2022-08-05T03:04:53;15.10;;;3.38;;
68357;SDS011;55276;53.260;50.222;2022-08-05T03:07:20;12.23;;;3.40;;
68357;SDS011;55276;53.260;50.222;2022-08-05T03:09:47;9.68;;;3.50;;
68357;SDS011;55276;53.260;50.222;2022-08-05T03:12:33;8.13;;;3.00;;
68357;SDS011;55276;53.260;50.222;2022-08-05T03:15:03;15.73;;;3.72;;
68357;SDS011;55276;53.260;50.222;2022-08-05T03:17:31;14.70;;;3.40;;
68357;SDS011;55276;53.260;50.222;2022-08-05T03:19:57;12.15;;;3.78;;
68357;SDS011;55276;53.260;50.222;2022-08-05T03:22:23;10.18;;;3.80;;
68357;SDS011;55276;53.260;50.222;2022-08-05T03:24:50;16.90;;;3.60;;
68357;SDS011;55276;53.260;50.222;2022-08-05T03:27:17;12.70;;;3.47;;
68357;SDS011;55276;53.260;50.222;2022-08-05T03:29:44;13.30;;;4.03;;
68357;SDS011;55276;53.260;50.222;2022-08-05T03:32:12;12.98;;;3.72;;
68357;SDS011;55276;53.260;50.222;2022-08-05T03:34:39;16.35;;;4.25;;
68357;SDS011;55276;53.260;50.222;2022-08-05T03:37:07;18.40;;;4.07;;
68357;SDS011;55276;53.260;50.222;2022-08-05T03:39:33;15.27;;;3.75;;
68357;SDS011;55276;53.260;50.222;2022-08-05T03:41:59;17.40;;;3.88;;
68357;SDS011;55276;53.260;50.222;2022-08-05T03:44:25;17.27;;;4.20;;
68357;SDS011;55276;53.260;50.222;2022-08-05T03:46:51;19.38;;;4.40;;
68357;SDS011;55276;53.260;50.222;2022-08-05T03:49:17;19.35;;;4.22;;
68357;SDS011;55276;53.260;50.222;2022-08-05T03:51:49;18.02;;;5.13;;
68357;SDS011;55276;53.260;50.222;2022-08-05T03:57:14;20.98;;;4.70;;
68357;SDS011;55276;53.260;50.222;2022-08-05T03:59:44;23.08;;;4.85;;
68357;SDS011;55276;53.260;50.222;2022-08-05T04:02:13;20.60;;;5.40;;
68357;SDS011;55276;53.260;50.222;2022-08-05T04:04:41;24.17;;;5.47;;
68357;SDS011;55276;53.260;50.222;2022-08-05T04:07:08;24.17;;;6.38;;
68357;SDS011;55276;53.260;50.222;2022-08-05T04:09:35;23.75;;;5.82;;
68357;SDS011;55276;53.260;50.222;2022-08-05T04:12:02;28.77;;;5.77;;
68357;SDS011;55276;53.260;50.222;2022-08-05T04:14:28;20.85;;;5.70;;
68357;SDS011;55276;53.260;50.222;2022-08-05T04:16:56;19.52;;;5.43;;
68357;SDS011;55276;53.260;50.222;2022-08-05T04:19:24;28.88;;;6.00;;
68357;SDS011;55276;53.260;50.222;2022-08-05T04:21:50;29.60;;;6.82;;
68357;SDS011;55276;53.260;50.222;2022-08-05T04:24:16;34.88;;;6.03;;
68357;SDS011;55276;53.260;50.222;2022-08-05T04:26:42;25.85;;;5.50;;
68357;SDS011;55276;53.260;50.222;2022-08-05T04:29:08;26.27;;;5.85;;
68357;SDS011;55276;53.260;50.222;2022-08-05T04:31:34;20.55;;;5.82;;
68357;SDS011;55276;53.260;50.222;2022-08-05T04:34:00;27.80;;;6.40;;
68357;SDS011;55276;53.260;50.222;2022-08-05T04:36:26;25.58;;;6.80;;
68357;SDS011;55276;53.260;50.222;2022-08-05T04:38:52;24.75;;;6.25;;
68357;SDS011;55276;53.260;50.222;2022-08-05T04:41:19;23.33;;;6.05;;
68357;SDS011;55276;53.260;50.222;2022-08-05T04:43:45;26.98;;;5.90;;
68357;SDS011;55276;53.260;50.222;2022-08-05T04:46:11;24.83;;;6.13;;
68357;SDS011;55276;53.260;50.222;2022-08-05T04:48:37;33.00;;;6.70;;
68357;SDS011;55276;53.260;50.222;2022-08-05T04:51:05;18.73;;;5.90;;
68357;SDS011;55276;53.260;50.222;2022-08-05T04:53:31;34.97;;;6.78;;
68357;SDS011;55276;53.260;50.222;2022-08-05T04:55:57;21.20;;;6.65;;
68357;SDS011;55276;53.260;50.222;2022-08-05T04:58:23;23.77;;;6.03;;
68357;SDS011;55276;53.260;50.222;2022-08-05T05:00:49;22.05;;;7.28;;
68357;SDS011;55276;53.260;50.222;2022-08-05T05:03:15;34.53;;;6.32;;
68357;SDS011;55276;53.260;50.222;2022-08-05T05:05:41;30.33;;;6.13;;
68357;SDS011;55276;53.260;50.222;2022-08-05T05:08:08;24.08;;;6.70;;
68357;SDS011;55276;53.260;50.222;2022-08-05T05:10:44;23.67;;;7.57;;
68357;SDS011;55276;53.260;50.222;2022-08-05T05:13:13;25.63;;;5.53;;
68357;SDS011;55276;53.260;50.222;2022-08-05T05:15:40;29.58;;;6.50;;
68357;SDS011;55276;53.260;50.222;2022-08-05T05:18:08;30.15;;;6.85;;
68357;SDS011;55276;53.260;50.222;2022-08-05T05:20:37;24.92;;;7.38;;
68357;SDS011;55276;53.260;50.222;2022-08-05T05:23:03;33.80;;;6.30;;
68357;SDS011;55276;53.260;50.222;2022-08-05T05:25:29;31.80;;;6.17;;
68357;SDS011;55276;53.260;50.222;2022-08-05T05:27:56;26.73;;;6.40;;
68357;SDS011;55276;53.260;50.222;2022-08-05T05:30:22;27.55;;;6.43;;
68357;SDS011;55276;53.260;50.222;2022-08-05T05:32:48;25.45;;;6.65;;
68357;SDS011;55276;53.260;50.222;2022-08-05T05:35:14;28.33;;;5.90;;
68357;SDS011;55276;53.260;50.222;2022-08-05T05:37:55;22.77;;;6.03;;
68357;SDS011;55276;53.260;50.222;2022-08-05T05:40:23;22.17;;;5.78;;
68357;SDS011;55276;53.260;50.222;2022-08-05T05:45:15;21.42;;;5.30;;
68357;SDS011;55276;53.260;50.222;2022-08-05T05:47:42;23.05;;;5.35;;
68357;SDS011;55276;53.260;50.222;2022-08-05T05:50:09;21.17;;;5.40;;
68357;SDS011;55276;53.260;50.222;2022-08-05T05:52:38;20.55;;;5.60;;
68357;SDS011;55276;53.260;50.222;2022-08-05T05:55:06;21.08;;;5.78;;
68357;SDS011;55276;53.260;50.222;2022-08-05T05:57:34;22.48;;;5.90;;
68357;SDS011;55276;53.260;50.222;2022-08-05T06:00:01;18.17;;;5.78;;
68357;SDS011;55276;53.260;50.222;2022-08-05T06:02:29;17.40;;;5.60;;
68357;SDS011;55276;53.260;50.222;2022-08-05T06:04:55;19.08;;;6.28;;
68357;SDS011;55276;53.260;50.222;2022-08-05T06:07:22;21.70;;;6.63;;
68357;SDS011;55276;53.260;50.222;2022-08-05T06:09:48;22.90;;;6.10;;
68357;SDS011;55276;53.260;50.222;2022-08-05T06:12:14;22.92;;;6.18;;
68357;SDS011;55276;53.260;50.222;2022-08-05T06:14:40;18.50;;;5.40;;
68357;SDS011;55276;53.260;50.222;2022-08-05T06:17:10;23.15;;;5.95;;
68357;SDS011;55276;53.260;50.222;2022-08-05T06:19:36;24.80;;;5.82;;
68357;SDS011;55276;53.260;50.222;2022-08-05T06:22:03;26.48;;;5.82;;
68357;SDS011;55276;53.260;50.222;2022-08-05T06:24:30;28.00;;;6.88;;
68357;SDS011;55276;53.260;50.222;2022-08-05T06:26:56;25.27;;;6.30;;
68357;SDS011;55276;53.260;50.222;2022-08-05T06:29:22;14.23;;;5.53;;
68357;SDS011;55276;53.260;50.222;2022-08-05T06:31:49;27.95;;;6.47;;
68357;SDS011;55276;53.260;50.222;2022-08-05T06:34:15;28.33;;;7.33;;
68357;SDS011;55276;53.260;50.222;2022-08-05T06:36:41;28.58;;;6.22;;
68357;SDS011;55276;53.260;50.222;2022-08-05T06:39:07;23.17;;;5.82;;
68357;SDS011;55276;53.260;50.222;2022-08-05T06:41:33;20.17;;;6.20;;
68357;SDS011;55276;53.260;50.222;2022-08-05T06:43:59;21.93;;;5.60;;
68357;SDS011;55276;53.260;50.222;2022-08-05T06:46:25;19.53;;;5.27;;
68357;SDS011;55276;53.260;50.222;2022-08-05T06:48:51;18.50;;;6.25;;
68357;SDS011;55276;53.260;50.222;2022-08-05T06:51:18;23.55;;;6.40;;
68357;SDS011;55276;53.260;50.222;2022-08-05T06:53:45;27.02;;;5.30;;
68357;SDS011;55276;53.260;50.222;2022-08-05T06:56:11;22.40;;;5.13;;
68357;SDS011;55276;53.260;50.222;2022-08-05T06:58:37;32.93;;;7.43;;
68357;SDS011;55276;53.260;50.222;2022-08-05T07:01:04;36.07;;;6.73;;
68357;SDS011;55276;53.260;50.222;2022-08-05T07:05:57;14.70;;;3.25;;
68357;SDS011;55276;53.260;50.222;2022-08-05T07:08:23;12.63;;;2.92;;
68357;SDS011;55276;53.260;50.222;2022-08-05T07:10:49;16.83;;;4.00;;
68357;SDS011;55276;53.260;50.222;2022-08-05T07:13:17;24.00;;;4.10;;
68357;SDS011;55276;53.260;50.222;2022-08-05T07:16:02;17.40;;;3.22;;
68357;SDS011;55276;53.260;50.222;2022-08-05T07:18:47;21.52;;;4.72;;
68357;SDS011;55276;53.260;50.222;2022-08-05T07:21:13;14.60;;;4.43;;
68357;SDS011;55276;53.260;50.222;2022-08-05T07:23:39;15.38;;;4.45;;
68357;SDS011;55276;53.260;50.222;2022-08-05T07:26:05;10.40;;;3.57;;
68357;SDS011;55276;53.260;50.222;2022-08-05T07:28:31;11.10;;;3.47;;
68357;SDS011;55276;53.260;50.222;2022-08-05T07:30:57;11.07;;;3.20;;
68357;SDS011;55276;53.260;50.222;2022-08-05T07:33:23;10.50;;;3.10;;
68357;SDS011;55276;53.260;50.222;2022-08-05T07:35:49;8.13;;;2.27;;
68357;SDS011;55276;53.260;50.222;2022-08-05T07:38:16;7.35;;;2.22;;
68357;SDS011;55276;53.260;50.222;2022-08-05T07:40:43;6.50;;;2.13;;
68357;SDS011;55276;53.260;50.222;2022-08-05T07:43:10;6.45;;;1.92;;
68357;SDS011;55276;53.260;50.222;2022-08-05T07:45:38;6.00;;;2.40;;
68357;SDS011;55276;53.260;50.222;2022-08-05T07:48:06;9.35;;;2.45;;
68357;SDS011;55276;53.260;50.222;2022-08-05T07:50:32;11.80;;;3.10;;
68357;SDS011;55276;53.260;50.222;2022-08-05T07:52:58;13.60;;;2.80;;
68357;SDS011;55276;53.260;50.222;2022-08-05T07:55:24;18.63;;;3.28;;
68357;SDS011;55276;53.260;50.222;2022-08-05T07:57:51;16.38;;;3.10;;
68357;SDS011;55276;53.260;50.222;2022-08-05T08:00:17;13.77;;;2.33;;
68357;SDS011;55276;53.260;50.222;2022-08-05T08:02:43;25.58;;;3.70;;
68357;SDS011;55276;53.260;50.222;2022-08-05T08:05:09;11.23;;;2.72;;
68357;SDS011;55276;53.260;50.222;2022-08-05T08:07:35;14.23;;;2.20;;
68357;SDS011;55276;53.260;50.222;2022-08-05T08:10:02;8.52;;;2.22;;
68357;SDS011;55276;53.260;50.222;2022-08-05T08:12:29;9.68;;;2.47;;
68357;SDS011;55276;53.260;50.222;2022-08-05T08:14:58;4.90;;;1.95;;
68357;SDS011;55276;53.260;50.222;2022-08-05T08:17:24;6.07;;;1.73;;
68357;SDS011;55276;53.260;50.222;2022-08-05T08:19:50;6.10;;;1.80;;
68357;SDS011;55276;53.260;50.222;2022-08-05T08:22:16;2.80;;;1.50;;
68357;SDS011;55276;53.260;50.222;2022-08-05T08:24:42;5.90;;;2.07;;
68357;SDS011;55276;53.260;50.222;2022-08-05T08:27:08;7.72;;;1.83;;
68357;SDS011;55276;53.260;50.222;2022-08-05T08:29:34;3.58;;;2.08;;
68357;SDS011;55276;53.260;50.222;2022-08-05T08:32:00;1.88;;;1.67;;
68357;SDS011;55276;53.260;50.222;2022-08-05T08:34:26;4.10;;;1.90;;
68357;SDS011;55276;53.260;50.222;2022-08-05T08:36:52;8.63;;;2.20;;
68357;SDS011;55276;53.260;50.222;2022-08-05T08:39:20;7.07;;;2.33;;
68357;SDS011;55276;53.260;50.222;2022-08-05T08:41:48;12.88;;;2.20;;
68357;SDS011;55276;53.260;50.222;2022-08-05T08:44:16;7.20;;;2.35;;
68357;SDS011;55276;53.260;50.222;2022-08-05T08:46:43;5.03;;;2.08;;
68357;SDS011;55276;53.260;50.222;2022-08-05T08:49:15;15.75;;;2.80;;
68357;SDS011;55276;53.260;50.222;2022-08-05T08:51:47;8.48;;;2.00;;
68357;SDS011;55276;53.260;50.222;2022-08-05T08:54:14;7.43;;;2.22;;
68357;SDS011;55276;53.260;50.222;2022-08-05T08:56:41;6.35;;;2.10;;
68357;SDS011;55276;53.260;50.222;2022-08-05T08:59:07;6.55;;;2.25;;
68357;SDS011;55276;53.260;50.222;2022-08-05T09:01:35;6.75;;;2.30;;
68357;SDS011;55276;53.260;50.222;2022-08-05T09:04:02;6.13;;;1.95;;
68357;SDS011;55276;53.260;50.222;2022-08-05T09:08:56;13.55;;;2.75;;
68357;SDS011;55276;53.260;50.222;2022-08-05T09:11:24;11.00;;;2.58;;
68357;SDS011;55276;53.260;50.222;2022-08-05T09:13:51;6.70;;;2.47;;
68357;SDS011;55276;53.260;50.222;2022-08-05T09:16:19;8.23;;;2.50;;
68357;SDS011;55276;53.260;50.222;2022-08-05T09:18:45;9.25;;;2.42;;
68357;SDS011;55276;53.260;50.222;2022-08-05T09:21:13;7.75;;;2.60;;
68357;SDS011;55276;53.260;50.222;2022-08-05T09:23:39;8.65;;;2.33;;
68357;SDS011;55276;53.260;50.222;2022-08-05T09:26:12;7.05;;;2.63;;
68357;SDS011;55276;53.260;50.222;2022-08-05T09:28:45;7.85;;;2.70;;
68357;SDS011;55276;53.260;50.222;2022-08-05T09:31:13;8.57;;;2.67;;
68357;SDS011;55276;53.260;50.222;2022-08-05T09:33:53;8.13;;;2.78;;
68357;SDS011;55276;53.260;50.222;2022-08-05T09:36:25;9.38;;;2.45;;
68357;SDS011;55276;53.260;50.222;2022-08-05T09:39:08;11.02;;;2.95;;
68357;SDS011;55276;53.260;50.222;2022-08-05T09:41:56;11.85;;;3.08;;
68357;SDS011;55276;53.260;50.222;2022-08-05T09:44:36;5.65;;;2.40;;
68357;SDS011;55276;53.260;50.222;2022-08-05T09:47:08;10.70;;;2.40;;
68357;SDS011;55276;53.260;50.222;2022-08-05T09:49:38;5.82;;;2.28;;
68357;SDS011;55276;53.260;50.222;2022-08-05T09:52:38;6.75;;;2.45;;
68357;SDS011;55276;53.260;50.222;2022-08-05T09:55:09;10.85;;;2.60;;
68357;SDS011;55276;53.260;50.222;2022-08-05T10:00:14;6.38;;;2.55;;
68357;SDS011;55276;53.260;50.222;2022-08-05T10:02:49;10.07;;;2.60;;
68357;SDS011;55276;53.260;50.222;2022-08-05T10:05:21;8.18;;;2.83;;
68357;SDS011;55276;53.260;50.222;2022-08-05T10:07:51;12.50;;;2.67;;
68357;SDS011;55276;53.260;50.222;2022-08-05T10:10:26;10.13;;;2.90;;
68357;SDS011;55276;53.260;50.222;2022-08-05T10:13:00;6.50;;;2.83;;
68357;SDS011;55276;53.260;50.222;2022-08-05T10:15:35;6.47;;;2.72;;
68357;SDS011;55276;53.260;50.222;2022-08-05T10:18:08;5.13;;;2.65;;
68357;SDS011;55276;53.260;50.222;2022-08-05T10:21:09;7.95;;;2.50;;
68357;SDS011;55276;53.260;50.222;2022-08-05T10:23:31;20.38;;;4.53;;
68357;SDS011;55276;53.260;50.222;2022-08-05T10:25:59;8.70;;;3.15;;
68357;SDS011;55276;53.260;50.222;2022-08-05T10:28:28;13.40;;;2.95;;
68357;SDS011;55276;53.260;50.222;2022-08-05T10:30:54;16.45;;;3.33;;
68357;SDS011;55276;53.260;50.222;2022-08-05T10:33:22;9.63;;;2.70;;
68357;SDS011;55276;53.260;50.222;2022-08-05T10:35:51;12.38;;;2.88;;
68357;SDS011;55276;53.260;50.222;2022-08-05T10:38:18;8.05;;;2.70;;
68357;SDS011;55276;53.260;50.222;2022-08-05T10:43:38;7.05;;;2.40;;
68357;SDS011;55276;53.260;50.222;2022-08-05T10:46:14;7.55;;;2.92;;
68357;SDS011;55276;53.260;50.222;2022-08-05T10:48:43;6.43;;;2.60;;
68357;SDS011;55276;53.260;50.222;2022-08-05T10:51:14;6.45;;;2.72;;
68357;SDS011;55276;53.260;50.222;2022-08-05T10:53:54;7.85;;;2.38;;
68357;SDS011;55276;53.260;50.222;2022-08-05T10:56:22;5.43;;;2.35;;
68357;SDS011;55276;53.260;50.222;2022-08-05T10:59:03;4.43;;;2.08;;
68357;SDS011;55276;53.260;50.222;2022-08-05T11:01:35;19.00;;;4.80;;
68357;SDS011;55276;53.260;50.222;2022-08-05T11:04:04;6.60;;;2.72;;
68357;SDS011;55276;53.260;50.222;2022-08-05T11:09:38;6.10;;;2.58;;
68357;SDS011;55276;53.260;50.222;2022-08-05T11:15:15;8.90;;;2.60;;
68357;SDS011;55276;53.260;50.222;2022-08-05T11:17:49;4.93;;;2.60;;
68357;SDS011;55276;53.260;50.222;2022-08-05T11:26:05;5.60;;;2.70;;
68357;SDS011;55276;53.260;50.222;2022-08-05T11:33:30;4.50;;;2.50;;
68357;SDS011;55276;53.260;50.222;2022-08-05T11:41:27;3.78;;;2.50;;
68357;SDS011;55276;53.260;50.222;2022-08-05T11:46:29;11.57;;;3.20;;
68357;SDS011;55276;53.260;50.222;2022-08-05T11:48:57;7.07;;;2.95;;
68357;SDS011;55276;53.260;50.222;2022-08-05T11:51:24;6.25;;;2.92;;
68357;SDS011;55276;53.260;50.222;2022-08-05T11:53:52;8.27;;;2.42;;
68357;SDS011;55276;53.260;50.222;2022-08-05T11:56:19;8.50;;;2.95;;
68357;SDS011;55276;53.260;50.222;2022-08-05T11:58:46;4.75;;;2.70;;
68357;SDS011;55276;53.260;50.222;2022-08-05T12:01:14;9.32;;;2.75;;
68357;SDS011;55276;53.260;50.222;2022-08-05T12:06:19;10.05;;;2.75;;
68357;SDS011;55276;53.260;50.222;2022-08-05T12:08:48;11.25;;;3.10;;
68357;SDS011;55276;53.260;50.222;2022-08-05T12:14:04;9.30;;;2.17;;
68357;SDS011;55276;53.260;50.222;2022-08-05T12:16:31;10.13;;;2.13;;
68357;SDS011;55276;53.260;50.222;2022-08-05T12:18:59;4.55;;;2.00;;
68357;SDS011;55276;53.260;50.222;2022-08-05T12:21:28;9.52;;;2.15;;
68357;SDS011;55276;53.260;50.222;2022-08-05T12:29:07;15.55;;;3.30;;
68357;SDS011;55276;53.260;50.222;2022-08-05T12:31:38;7.75;;;2.63;;
68357;SDS011;55276;53.260;50.222;2022-08-05T12:34:06;10.32;;;2.97;;
68357;SDS011;55276;53.260;50.222;2022-08-05T12:36:34;9.07;;;2.58;;
68357;SDS011;55276;53.260;50.222;2022-08-05T12:39:02;6.25;;;2.35;;
68357;SDS011;55276;53.260;50.222;2022-08-05T12:41:33;7.25;;;2.50;;
68357;SDS011;55276;53.260;50.222;2022-08-05T12:44:02;12.80;;;2.70;;
68357;SDS011;55276;53.260;50.222;2022-08-05T12:46:30;8.68;;;3.08;;
68357;SDS011;55276;53.260;50.222;2022-08-05T12:51:26;6.78;;;2.22;;
68357;SDS011;55276;53.260;50.222;2022-08-05T12:54:02;6.03;;;2.10;;
68357;SDS011;55276;53.260;50.222;2022-08-05T12:56:29;3.35;;;1.80;;
68357;SDS011;55276;53.260;50.222;2022-08-05T13:01:44;5.70;;;2.22;;
68357;SDS011;55276;53.260;50.222;2022-08-05T13:04:19;5.90;;;2.08;;
68357;SDS011;55276;53.260;50.222;2022-08-05T13:06:45;8.80;;;2.10;;
68357;SDS011;55276;53.260;50.222;2022-08-05T13:09:12;5.43;;;1.63;;
68357;SDS011;55276;53.260;50.222;2022-08-05T13:11:41;6.63;;;1.85;;
68357;SDS011;55276;53.260;50.222;2022-08-05T13:14:10;5.32;;;1.75;;
68357;SDS011;55276;53.260;50.222;2022-08-05T13:16:54;12.63;;;3.22;;
68357;SDS011;55276;53.260;50.222;2022-08-05T13:19:22;15.52;;;2.97;;
68357;SDS011;55276;53.260;50.222;2022-08-05T13:21:51;11.55;;;2.90;;
68357;SDS011;55276;53.260;50.222;2022-08-05T13:24:19;9.52;;;2.60;;
68357;SDS011;55276;53.260;50.222;2022-08-05T13:26:47;7.55;;;2.28;;
68357;SDS011;55276;53.260;50.222;2022-08-05T13:29:14;6.22;;;1.95;;
68357;SDS011;55276;53.260;50.222;2022-08-05T13:31:41;11.43;;;2.20;;
68357;SDS011;55276;53.260;50.222;2022-08-05T13:34:08;8.23;;;2.50;;
68357;SDS011;55276;53.260;50.222;2022-08-05T13:36:34;8.65;;;2.50;;
68357;SDS011;55276;53.260;50.222;2022-08-05T13:39:02;6.93;;;2.53;;
68357;SDS011;55276;53.260;50.222;2022-08-05T13:41:29;5.07;;;2.00;;
68357;SDS011;55276;53.260;50.222;2022-08-05T13:43:56;23.48;;;3.65;;
68357;SDS011;55276;53.260;50.222;2022-08-05T13:46:22;6.32;;;2.00;;
68357;SDS011;55276;53.260;50.222;2022-08-05T13:48:49;14.02;;;3.33;;
68357;SDS011;55276;53.260;50.222;2022-08-05T13:51:24;7.07;;;2.95;;
68357;SDS011;55276;53.260;50.222;2022-08-05T13:53:55;11.40;;;4.00;;
68357;SDS011;55276;53.260;50.222;2022-08-05T13:56:21;17.60;;;3.38;;
68357;SDS011;55276;53.260;50.222;2022-08-05T13:58:47;12.30;;;3.08;;
68357;SDS011;55276;53.260;50.222;2022-08-05T14:01:13;14.13;;;3.40;;
68357;SDS011;55276;53.260;50.222;2022-08-05T14:03:43;10.95;;;2.80;;
68357;SDS011;55276;53.260;50.222;2022-08-05T14:06:29;8.10;;;2.63;;
68357;SDS011;55276;53.260;50.222;2022-08-05T14:08:56;7.03;;;2.53;;
68357;SDS011;55276;53.260;50.222;2022-08-05T14:11:24;4.97;;;2.28;;
68357;SDS011;55276;53.260;50.222;2022-08-05T14:13:52;13.35;;;3.15;;
68357;SDS011;55276;53.260;50.222;2022-08-05T14:18:45;8.45;;;3.00;;
68357;SDS011;55276;53.260;50.222;2022-08-05T14:21:11;10.68;;;2.80;;
68357;SDS011;55276;53.260;50.222;2022-08-05T14:23:37;4.45;;;2.30;;
68357;SDS011;55276;53.260;50.222;2022-08-05T14:26:03;15.23;;;3.50;;
68357;SDS011;55276;53.260;50.222;2022-08-05T14:28:29;12.77;;;2.85;;
68357;SDS011;55276;53.260;50.222;2022-08-05T14:30:56;13.07;;;3.13;;
68357;SDS011;55276;53.260;50.222;2022-08-05T14:33:23;11.35;;;3.55;;
68357;SDS011;55276;53.260;50.222;2022-08-05T14:35:49;14.80;;;3.42;;
68357;SDS011;55276;53.260;50.222;2022-08-05T14:38:16;10.40;;;3.08;;
68357;SDS011;55276;53.260;50.222;2022-08-05T14:40:42;7.40;;;2.70;;
68357;SDS011;55276;53.260;50.222;2022-08-05T14:43:08;8.73;;;2.90;;
68357;SDS011;55276;53.260;50.222;2022-08-05T14:45:34;12.20;;;3.30;;
68357;SDS011;55276;53.260;50.222;2022-08-05T14:48:00;15.68;;;3.10;;
68357;SDS011;55276;53.260;50.222;2022-08-05T14:50:26;9.85;;;3.50;;
68357;SDS011;55276;53.260;50.222;2022-08-05T14:52:52;11.95;;;3.40;;
68357;SDS011;55276;53.260;50.222;2022-08-05T14:55:18;6.30;;;3.58;;
68357;SDS011;55276;53.260;50.222;2022-08-05T14:57:44;9.35;;;3.60;;
68357;SDS011;55276;53.260;50.222;2022-08-05T15:00:10;10.10;;;4.05;;
68357;SDS011;55276;53.260;50.222;2022-08-05T15:02:37;10.82;;;4.35;;
68357;SDS011;55276;53.260;50.222;2022-08-05T15:05:04;13.68;;;4.18;;
68357;SDS011;55276;53.260;50.222;2022-08-05T15:07:30;13.80;;;4.10;;
68357;SDS011;55276;53.260;50.222;2022-08-05T15:09:56;12.43;;;3.90;;
68357;SDS011;55276;53.260;50.222;2022-08-05T15:12:24;13.82;;;3.75;;
68357;SDS011;55276;53.260;50.222;2022-08-05T15:14:50;13.40;;;3.63;;
68357;SDS011;55276;53.260;50.222;2022-08-05T15:17:17;13.45;;;3.95;;
68357;SDS011;55276;53.260;50.222;2022-08-05T15:19:43;7.18;;;3.58;;
68357;SDS011;55276;53.260;50.222;2022-08-05T15:22:09;14.63;;;3.40;;
68357;SDS011;55276;53.260;50.222;2022-08-05T15:24:35;14.45;;;3.60;;
68357;SDS011;55276;53.260;50.222;2022-08-05T15:27:01;12.13;;;3.65;;
68357;SDS011;55276;53.260;50.222;2022-08-05T15:31:54;14.45;;;3.75;;
68357;SDS011;55276;53.260;50.222;2022-08-05T15:34:20;7.22;;;2.97;;
68357;SDS011;55276;53.260;50.222;2022-08-05T15:36:47;8.10;;;3.28;;
68357;SDS011;55276;53.260;50.222;2022-08-05T15:41:39;8.23;;;2.95;;
68357;SDS011;55276;53.260;50.222;2022-08-05T15:44:05;10.10;;;3.10;;
68357;SDS011;55276;53.260;50.222;2022-08-05T15:46:31;12.20;;;3.53;;
68357;SDS011;55276;53.260;50.222;2022-08-05T15:48:57;11.52;;;3.75;;
68357;SDS011;55276;53.260;50.222;2022-08-05T15:51:24;8.35;;;3.60;;